sensor_id;sensor_type;location;lat;lon;timestamp;temperature;humidity
13944;DHT22;7044;53.286;8.534;2023-07-31T00:01:18;16.30;99.90
13944;DHT22;7044;53.286;8.534;2023-07-31T00:03:45;16.40;99.90
13944;DHT22;7044;53.286;8.534;2023-07-31T00:06:12;16.30;99.90
13944;DHT22;7044;53.286;8.534;2023-07-31T00:08:39;16.40;99.90
13944;DHT22;7044;53.286;8.534;2023-07-31T00:11:07;16.40;99.90
13944;DHT22;7044;53.286;8.534;2023-07-31T00:13:34;16.30;99.90
13944;DHT22;7044;53.286;8.534;2023-07-31T00:16:01;16.40;99.90
13944;DHT22;7044;53.286;8.534;2023-07-31T00:18:27;16.40;99.90
13944;DHT22;7044;53.286;8.534;2023-07-31T00:20:54;16.40;99.90
13944;DHT22;7044;53.286;8.534;2023-07-31T00:23:21;16.40;99.90
13944;DHT22;7044;53.286;8.534;2023-07-31T00:25:48;16.30;99.90
13944;DHT22;7044;53.286;8.534;2023-07-31T00:28:16;16.40;99.90
13944;DHT22;7044;53.286;8.534;2023-07-31T00:30:43;16.40;99.90
13944;DHT22;7044;53.286;8.534;2023-07-31T00:33:09;16.40;99.90
13944;DHT22;7044;53.286;8.534;2023-07-31T00:35:36;16.40;99.90
13944;DHT22;7044;53.286;8.534;2023-07-31T00:40:34;16.40;99.90
13944;DHT22;7044;53.286;8.534;2023-07-31T00:43:01;16.40;99.90
13944;DHT22;7044;53.286;8.534;2023-07-31T00:45:30;16.40;99.90
13944;DHT22;7044;53.286;8.534;2023-07-31T00:47:57;16.40;99.90
13944;DHT22;7044;53.286;8.534;2023-07-31T00:50:25;16.40;99.90
13944;DHT22;7044;53.286;8.534;2023-07-31T00:52:52;16.10;99.90
13944;DHT22;7044;53.286;8.534;2023-07-31T00:55:19;16.40;99.90
13944;DHT22;7044;53.286;8.534;2023-07-31T00:57:48;16.30;99.90
13944;DHT22;7044;53.286;8.534;2023-07-31T01:00:14;16.40;99.90
13944;DHT22;7044;53.286;8.534;2023-07-31T01:02:43;16.40;99.90
13944;DHT22;7044;53.286;8.534;2023-07-31T01:05:10;16.40;99.90
13944;DHT22;7044;53.286;8.534;2023-07-31T01:07:42;16.40;99.90
13944;DHT22;7044;53.286;8.534;2023-07-31T01:10:15;16.40;99.90
13944;DHT22;7044;53.286;8.534;2023-07-31T01:12:45;16.40;99.90
13944;DHT22;7044;53.286;8.534;2023-07-31T01:15:13;16.40;99.90
13944;DHT22;7044;53.286;8.534;2023-07-31T01:17:42;16.40;99.90
13944;DHT22;7044;53.286;8.534;2023-07-31T01:20:11;16.40;99.90
13944;DHT22;7044;53.286;8.534;2023-07-31T01:22:54;16.30;99.90
13944;DHT22;7044;53.286;8.534;2023-07-31T01:28:37;16.30;99.90
13944;DHT22;7044;53.286;8.534;2023-07-31T01:31:07;16.30;99.90
13944;DHT22;7044;53.286;8.534;2023-07-31T01:33:37;16.40;99.90
13944;DHT22;7044;53.286;8.534;2023-07-31T01:36:04;16.40;99.90
13944;DHT22;7044;53.286;8.534;2023-07-31T01:38:31;16.50;99.90
13944;DHT22;7044;53.286;8.534;2023-07-31T01:40:59;16.40;99.90
13944;DHT22;7044;53.286;8.534;2023-07-31T01:43:26;16.30;99.90
13944;DHT22;7044;53.286;8.534;2023-07-31T01:45:54;16.40;99.90
13944;DHT22;7044;53.286;8.534;2023-07-31T01:48:21;16.40;99.90
13944;DHT22;7044;53.286;8.534;2023-07-31T01:50:48;16.30;99.90
13944;DHT22;7044;53.286;8.534;2023-07-31T01:53:15;16.40;99.90
13944;DHT22;7044;53.286;8.534;2023-07-31T01:55:42;16.30;99.90
13944;DHT22;7044;53.286;8.534;2023-07-31T01:58:09;16.40;99.90
13944;DHT22;7044;53.286;8.534;2023-07-31T02:00:35;16.40;99.90
13944;DHT22;7044;53.286;8.534;2023-07-31T02:03:04;16.40;99.90
13944;DHT22;7044;53.286;8.534;2023-07-31T02:05:30;16.10;99.90
13944;DHT22;7044;53.286;8.534;2023-07-31T02:07:57;16.30;99.90
13944;DHT22;7044;53.286;8.534;2023-07-31T02:10:24;16.30;99.90
13944;DHT22;7044;53.286;8.534;2023-07-31T02:12:51;16.30;99.90
13944;DHT22;7044;53.286;8.534;2023-07-31T02:15:18;16.30;99.90
13944;DHT22;7044;53.286;8.534;2023-07-31T02:17:45;16.30;99.90
13944;DHT22;7044;53.286;8.534;2023-07-31T02:20:13;16.30;99.90
13944;DHT22;7044;53.286;8.534;2023-07-31T02:22:40;16.30;99.90
13944;DHT22;7044;53.286;8.534;2023-07-31T02:25:07;16.20;99.90
13944;DHT22;7044;53.286;8.534;2023-07-31T02:27:34;16.40;99.90
13944;DHT22;7044;53.286;8.534;2023-07-31T02:30:01;16.30;99.90
13944;DHT22;7044;53.286;8.534;2023-07-31T02:32:28;16.20;99.90
13944;DHT22;7044;53.286;8.534;2023-07-31T02:34:55;16.20;99.90
13944;DHT22;7044;53.286;8.534;2023-07-31T02:37:23;16.10;99.90
13944;DHT22;7044;53.286;8.534;2023-07-31T02:39:50;16.10;99.90
13944;DHT22;7044;53.286;8.534;2023-07-31T02:42:17;16.10;99.90
13944;DHT22;7044;53.286;8.534;2023-07-31T02:44:44;16.10;99.90
13944;DHT22;7044;53.286;8.534;2023-07-31T02:47:11;16.10;99.90
13944;DHT22;7044;53.286;8.534;2023-07-31T02:49:38;16.10;99.90
13944;DHT22;7044;53.286;8.534;2023-07-31T02:52:05;16.10;99.90
13944;DHT22;7044;53.286;8.534;2023-07-31T02:54:33;16.00;99.90
13944;DHT22;7044;53.286;8.534;2023-07-31T02:57:00;16.00;99.90
13944;DHT22;7044;53.286;8.534;2023-07-31T02:59:28;16.00;99.90
13944;DHT22;7044;53.286;8.534;2023-07-31T03:01:54;16.00;99.90
13944;DHT22;7044;53.286;8.534;2023-07-31T03:04:21;16.00;99.90
13944;DHT22;7044;53.286;8.534;2023-07-31T03:06:48;15.90;99.90
13944;DHT22;7044;53.286;8.534;2023-07-31T03:09:15;16.00;99.90
13944;DHT22;7044;53.286;8.534;2023-07-31T03:11:43;15.90;99.90
13944;DHT22;7044;53.286;8.534;2023-07-31T03:14:10;16.00;99.90
13944;DHT22;7044;53.286;8.534;2023-07-31T03:16:37;16.00;99.90
13944;DHT22;7044;53.286;8.534;2023-07-31T03:19:04;15.90;99.90
13944;DHT22;7044;53.286;8.534;2023-07-31T03:21:31;15.90;99.90
13944;DHT22;7044;53.286;8.534;2023-07-31T03:23:57;16.00;99.90
13944;DHT22;7044;53.286;8.534;2023-07-31T03:28:53;16.00;99.90
13944;DHT22;7044;53.286;8.534;2023-07-31T03:31:19;15.90;99.90
13944;DHT22;7044;53.286;8.534;2023-07-31T03:33:46;15.90;99.90
13944;DHT22;7044;53.286;8.534;2023-07-31T03:36:13;15.90;99.90
13944;DHT22;7044;53.286;8.534;2023-07-31T03:38:40;15.90;99.90
13944;DHT22;7044;53.286;8.534;2023-07-31T03:41:07;15.80;99.90
13944;DHT22;7044;53.286;8.534;2023-07-31T03:46:02;15.80;99.90
13944;DHT22;7044;53.286;8.534;2023-07-31T03:48:29;15.90;99.90
13944;DHT22;7044;53.286;8.534;2023-07-31T03:50:56;15.50;99.90
13944;DHT22;7044;53.286;8.534;2023-07-31T03:53:23;15.90;99.90
13944;DHT22;7044;53.286;8.534;2023-07-31T03:55:50;15.90;99.90
13944;DHT22;7044;53.286;8.534;2023-07-31T03:58:16;15.80;99.90
13944;DHT22;7044;53.286;8.534;2023-07-31T04:00:43;15.80;99.90
13944;DHT22;7044;53.286;8.534;2023-07-31T04:03:11;15.80;99.90
13944;DHT22;7044;53.286;8.534;2023-07-31T04:05:38;15.80;99.90
13944;DHT22;7044;53.286;8.534;2023-07-31T04:08:06;15.80;99.90
13944;DHT22;7044;53.286;8.534;2023-07-31T04:10:33;15.80;99.90
13944;DHT22;7044;53.286;8.534;2023-07-31T04:12:59;15.80;99.90
13944;DHT22;7044;53.286;8.534;2023-07-31T04:15:26;15.80;99.90
13944;DHT22;7044;53.286;8.534;2023-07-31T04:17:53;15.80;99.90
13944;DHT22;7044;53.286;8.534;2023-07-31T04:20:21;15.80;99.90
13944;DHT22;7044;53.286;8.534;2023-07-31T04:22:48;15.80;99.90
13944;DHT22;7044;53.286;8.534;2023-07-31T04:25:15;15.80;99.90
13944;DHT22;7044;53.286;8.534;2023-07-31T04:27:42;15.80;99.90
13944;DHT22;7044;53.286;8.534;2023-07-31T04:30:09;15.80;99.90
13944;DHT22;7044;53.286;8.534;2023-07-31T04:32:36;15.80;99.90
13944;DHT22;7044;53.286;8.534;2023-07-31T04:35:03;15.80;99.90
13944;DHT22;7044;53.286;8.534;2023-07-31T04:37:31;15.80;99.90
13944;DHT22;7044;53.286;8.534;2023-07-31T04:39:58;15.60;99.90
13944;DHT22;7044;53.286;8.534;2023-07-31T04:42:25;15.80;99.90
13944;DHT22;7044;53.286;8.534;2023-07-31T04:44:52;15.90;99.90
13944;DHT22;7044;53.286;8.534;2023-07-31T04:47:19;15.80;99.90
13944;DHT22;7044;53.286;8.534;2023-07-31T04:49:46;15.80;99.90
13944;DHT22;7044;53.286;8.534;2023-07-31T04:52:13;15.90;99.90
13944;DHT22;7044;53.286;8.534;2023-07-31T04:54:41;15.80;99.90
13944;DHT22;7044;53.286;8.534;2023-07-31T04:57:08;15.80;99.90
13944;DHT22;7044;53.286;8.534;2023-07-31T04:59:35;15.90;99.90
13944;DHT22;7044;53.286;8.534;2023-07-31T05:02:02;15.90;99.90
13944;DHT22;7044;53.286;8.534;2023-07-31T05:04:29;15.90;99.90
13944;DHT22;7044;53.286;8.534;2023-07-31T05:06:56;15.90;99.90
13944;DHT22;7044;53.286;8.534;2023-07-31T05:09:23;16.00;99.90
13944;DHT22;7044;53.286;8.534;2023-07-31T05:11:51;15.90;99.90
13944;DHT22;7044;53.286;8.534;2023-07-31T05:14:18;15.80;99.90
13944;DHT22;7044;53.286;8.534;2023-07-31T05:16:45;15.90;99.90
13944;DHT22;7044;53.286;8.534;2023-07-31T05:19:12;16.00;99.90
13944;DHT22;7044;53.286;8.534;2023-07-31T05:21:39;15.90;99.90
13944;DHT22;7044;53.286;8.534;2023-07-31T05:24:06;15.90;99.90
13944;DHT22;7044;53.286;8.534;2023-07-31T05:26:33;15.90;99.90
13944;DHT22;7044;53.286;8.534;2023-07-31T05:29:01;15.90;99.90
13944;DHT22;7044;53.286;8.534;2023-07-31T05:31:28;15.90;99.90
13944;DHT22;7044;53.286;8.534;2023-07-31T05:33:55;16.00;99.90
13944;DHT22;7044;53.286;8.534;2023-07-31T05:36:22;16.00;99.90
13944;DHT22;7044;53.286;8.534;2023-07-31T05:38:49;16.00;99.90
13944;DHT22;7044;53.286;8.534;2023-07-31T05:41:15;16.00;99.90
13944;DHT22;7044;53.286;8.534;2023-07-31T05:43:43;16.00;99.90
13944;DHT22;7044;53.286;8.534;2023-07-31T05:46:12;16.00;99.90
13944;DHT22;7044;53.286;8.534;2023-07-31T05:51:07;16.10;99.90
13944;DHT22;7044;53.286;8.534;2023-07-31T05:53:33;16.00;99.90
13944;DHT22;7044;53.286;8.534;2023-07-31T05:56:01;16.20;99.90
13944;DHT22;7044;53.286;8.534;2023-07-31T05:58:28;16.10;99.90
13944;DHT22;7044;53.286;8.534;2023-07-31T06:00:55;15.80;99.90
13944;DHT22;7044;53.286;8.534;2023-07-31T06:03:23;16.20;99.90
13944;DHT22;7044;53.286;8.534;2023-07-31T06:05:50;16.20;99.90
13944;DHT22;7044;53.286;8.534;2023-07-31T06:08:17;16.20;99.90
13944;DHT22;7044;53.286;8.534;2023-07-31T06:10:43;16.10;99.90
13944;DHT22;7044;53.286;8.534;2023-07-31T06:13:10;16.20;99.90
13944;DHT22;7044;53.286;8.534;2023-07-31T06:15:37;16.20;99.90
13944;DHT22;7044;53.286;8.534;2023-07-31T06:18:04;16.10;99.90
13944;DHT22;7044;53.286;8.534;2023-07-31T06:20:36;16.30;99.90
13944;DHT22;7044;53.286;8.534;2023-07-31T06:23:06;16.10;99.90
13944;DHT22;7044;53.286;8.534;2023-07-31T06:25:32;16.20;99.90
13944;DHT22;7044;53.286;8.534;2023-07-31T06:27:59;16.20;99.90
13944;DHT22;7044;53.286;8.534;2023-07-31T06:30:26;16.20;99.90
13944;DHT22;7044;53.286;8.534;2023-07-31T06:32:53;16.30;99.90
13944;DHT22;7044;53.286;8.534;2023-07-31T06:35:20;16.20;99.90
13944;DHT22;7044;53.286;8.534;2023-07-31T06:37:48;16.20;99.90
13944;DHT22;7044;53.286;8.534;2023-07-31T06:40:16;16.30;99.90
13944;DHT22;7044;53.286;8.534;2023-07-31T06:42:43;16.30;99.90
13944;DHT22;7044;53.286;8.534;2023-07-31T06:45:10;16.30;99.90
13944;DHT22;7044;53.286;8.534;2023-07-31T06:47:37;16.30;99.90
13944;DHT22;7044;53.286;8.534;2023-07-31T06:50:05;16.30;99.90
13944;DHT22;7044;53.286;8.534;2023-07-31T06:52:32;16.30;99.90
13944;DHT22;7044;53.286;8.534;2023-07-31T06:55:17;16.40;99.90
13944;DHT22;7044;53.286;8.534;2023-07-31T06:57:45;16.40;99.90
13944;DHT22;7044;53.286;8.534;2023-07-31T07:00:12;16.40;99.90
13944;DHT22;7044;53.286;8.534;2023-07-31T07:02:39;16.40;99.90
13944;DHT22;7044;53.286;8.534;2023-07-31T07:05:07;16.40;99.90
13944;DHT22;7044;53.286;8.534;2023-07-31T07:07:34;16.40;99.90
13944;DHT22;7044;53.286;8.534;2023-07-31T07:10:02;16.40;99.90
13944;DHT22;7044;53.286;8.534;2023-07-31T07:12:31;16.40;99.90
13944;DHT22;7044;53.286;8.534;2023-07-31T07:14:58;16.40;99.90
13944;DHT22;7044;53.286;8.534;2023-07-31T07:17:26;16.40;99.90
13944;DHT22;7044;53.286;8.534;2023-07-31T07:19:53;16.40;99.90
13944;DHT22;7044;53.286;8.534;2023-07-31T07:22:20;16.50;99.90
13944;DHT22;7044;53.286;8.534;2023-07-31T07:24:47;16.50;99.90
13944;DHT22;7044;53.286;8.534;2023-07-31T07:27:15;16.50;99.90
13944;DHT22;7044;53.286;8.534;2023-07-31T07:29:42;16.50;99.90
13944;DHT22;7044;53.286;8.534;2023-07-31T07:32:09;16.50;99.90
13944;DHT22;7044;53.286;8.534;2023-07-31T07:34:37;16.40;99.90
13944;DHT22;7044;53.286;8.534;2023-07-31T07:37:05;16.40;99.90
13944;DHT22;7044;53.286;8.534;2023-07-31T07:39:32;16.40;99.90
13944;DHT22;7044;53.286;8.534;2023-07-31T07:41:58;16.40;99.90
13944;DHT22;7044;53.286;8.534;2023-07-31T07:44:27;16.40;99.90
13944;DHT22;7044;53.286;8.534;2023-07-31T07:46:53;16.30;99.90
13944;DHT22;7044;53.286;8.534;2023-07-31T07:49:20;16.30;99.90
13944;DHT22;7044;53.286;8.534;2023-07-31T07:51:48;16.30;99.90
13944;DHT22;7044;53.286;8.534;2023-07-31T07:54:15;16.30;99.90
13944;DHT22;7044;53.286;8.534;2023-07-31T07:56:42;16.30;99.90
13944;DHT22;7044;53.286;8.534;2023-07-31T07:59:09;16.40;99.90
13944;DHT22;7044;53.286;8.534;2023-07-31T08:01:37;16.30;99.90
13944;DHT22;7044;53.286;8.534;2023-07-31T08:04:04;16.30;99.90
13944;DHT22;7044;53.286;8.534;2023-07-31T08:06:31;16.20;99.90
13944;DHT22;7044;53.286;8.534;2023-07-31T08:08:58;16.30;99.90
13944;DHT22;7044;53.286;8.534;2023-07-31T08:11:25;16.20;99.90
13944;DHT22;7044;53.286;8.534;2023-07-31T08:13:52;15.30;99.90
13944;DHT22;7044;53.286;8.534;2023-07-31T08:16:19;16.30;99.90
13944;DHT22;7044;53.286;8.534;2023-07-31T08:18:47;16.40;99.90
13944;DHT22;7044;53.286;8.534;2023-07-31T08:21:14;16.40;99.90
13944;DHT22;7044;53.286;8.534;2023-07-31T08:23:41;16.50;99.90
13944;DHT22;7044;53.286;8.534;2023-07-31T08:26:08;16.50;99.90
13944;DHT22;7044;53.286;8.534;2023-07-31T08:28:35;16.60;99.90
13944;DHT22;7044;53.286;8.534;2023-07-31T08:31:02;16.50;99.90
13944;DHT22;7044;53.286;8.534;2023-07-31T08:33:29;16.60;99.90
13944;DHT22;7044;53.286;8.534;2023-07-31T08:35:57;16.70;99.90
13944;DHT22;7044;53.286;8.534;2023-07-31T08:38:26;17.10;99.90
13944;DHT22;7044;53.286;8.534;2023-07-31T08:40:56;16.80;99.90
13944;DHT22;7044;53.286;8.534;2023-07-31T08:45:53;16.90;99.90
13944;DHT22;7044;53.286;8.534;2023-07-31T08:48:21;17.00;99.90
13944;DHT22;7044;53.286;8.534;2023-07-31T08:50:49;16.90;99.90
13944;DHT22;7044;53.286;8.534;2023-07-31T08:53:17;17.00;99.90
13944;DHT22;7044;53.286;8.534;2023-07-31T08:55:44;17.00;99.90
13944;DHT22;7044;53.286;8.534;2023-07-31T08:58:12;18.00;99.90
13944;DHT22;7044;53.286;8.534;2023-07-31T09:00:40;17.00;99.90
13944;DHT22;7044;53.286;8.534;2023-07-31T09:03:12;17.00;99.90
13944;DHT22;7044;53.286;8.534;2023-07-31T09:05:42;16.90;99.90
13944;DHT22;7044;53.286;8.534;2023-07-31T09:08:09;16.90;99.90
13944;DHT22;7044;53.286;8.534;2023-07-31T09:10:40;16.80;99.90
13944;DHT22;7044;53.286;8.534;2023-07-31T09:13:08;16.60;99.90
13944;DHT22;7044;53.286;8.534;2023-07-31T09:15:35;17.00;99.90
13944;DHT22;7044;53.286;8.534;2023-07-31T09:18:03;16.90;99.90
13944;DHT22;7044;53.286;8.534;2023-07-31T09:20:31;17.00;99.90
13944;DHT22;7044;53.286;8.534;2023-07-31T09:23:05;17.00;99.90
13944;DHT22;7044;53.286;8.534;2023-07-31T09:25:34;17.00;99.90
13944;DHT22;7044;53.286;8.534;2023-07-31T09:28:04;17.00;99.90
13944;DHT22;7044;53.286;8.534;2023-07-31T09:30:32;17.00;99.90
13944;DHT22;7044;53.286;8.534;2023-07-31T09:33:10;16.90;99.90
13944;DHT22;7044;53.286;8.534;2023-07-31T09:35:36;16.90;99.90
13944;DHT22;7044;53.286;8.534;2023-07-31T09:38:07;16.90;99.90
13944;DHT22;7044;53.286;8.534;2023-07-31T09:40:35;17.00;99.90
13944;DHT22;7044;53.286;8.534;2023-07-31T09:43:05;17.00;99.90
13944;DHT22;7044;53.286;8.534;2023-07-31T09:45:34;17.10;99.90
13944;DHT22;7044;53.286;8.534;2023-07-31T09:48:01;17.20;99.90
13944;DHT22;7044;53.286;8.534;2023-07-31T09:50:29;17.20;99.90
13944;DHT22;7044;53.286;8.534;2023-07-31T09:52:56;17.20;99.90
13944;DHT22;7044;53.286;8.534;2023-07-31T09:55:24;17.30;99.90
13944;DHT22;7044;53.286;8.534;2023-07-31T09:57:51;17.30;99.90
13944;DHT22;7044;53.286;8.534;2023-07-31T10:00:20;17.40;99.90
13944;DHT22;7044;53.286;8.534;2023-07-31T10:02:51;17.40;99.90
13944;DHT22;7044;53.286;8.534;2023-07-31T10:05:19;17.40;99.90
13944;DHT22;7044;53.286;8.534;2023-07-31T10:07:54;17.40;99.90
13944;DHT22;7044;53.286;8.534;2023-07-31T10:10:22;17.80;99.90
13944;DHT22;7044;53.286;8.534;2023-07-31T10:12:49;17.40;99.90
13944;DHT22;7044;53.286;8.534;2023-07-31T10:15:16;17.30;99.90
13944;DHT22;7044;53.286;8.534;2023-07-31T10:17:46;17.30;99.90
13944;DHT22;7044;53.286;8.534;2023-07-31T10:20:14;17.40;99.90
13944;DHT22;7044;53.286;8.534;2023-07-31T10:22:42;17.30;99.90
13944;DHT22;7044;53.286;8.534;2023-07-31T10:25:09;17.30;99.90
13944;DHT22;7044;53.286;8.534;2023-07-31T10:27:38;17.30;99.90
13944;DHT22;7044;53.286;8.534;2023-07-31T10:30:08;17.40;99.90
13944;DHT22;7044;53.286;8.534;2023-07-31T10:32:38;17.40;99.90
13944;DHT22;7044;53.286;8.534;2023-07-31T10:35:07;17.40;99.90
13944;DHT22;7044;53.286;8.534;2023-07-31T10:37:37;17.40;99.90
13944;DHT22;7044;53.286;8.534;2023-07-31T10:40:05;17.40;99.90
13944;DHT22;7044;53.286;8.534;2023-07-31T10:42:34;17.40;99.90
13944;DHT22;7044;53.286;8.534;2023-07-31T10:45:03;17.40;99.90
13944;DHT22;7044;53.286;8.534;2023-07-31T10:47:31;17.50;99.90
13944;DHT22;7044;53.286;8.534;2023-07-31T10:50:17;17.60;99.90
13944;DHT22;7044;53.286;8.534;2023-07-31T10:52:47;17.50;99.90
13944;DHT22;7044;53.286;8.534;2023-07-31T10:55:22;17.50;99.90
13944;DHT22;7044;53.286;8.534;2023-07-31T10:57:49;17.60;99.90
13944;DHT22;7044;53.286;8.534;2023-07-31T11:00:21;17.70;99.90
13944;DHT22;7044;53.286;8.534;2023-07-31T11:02:58;17.60;99.90
13944;DHT22;7044;53.286;8.534;2023-07-31T11:05:48;17.70;99.90
13944;DHT22;7044;53.286;8.534;2023-07-31T11:08:18;17.70;99.90
13944;DHT22;7044;53.286;8.534;2023-07-31T11:10:47;17.80;99.90
13944;DHT22;7044;53.286;8.534;2023-07-31T11:13:14;17.80;99.90
13944;DHT22;7044;53.286;8.534;2023-07-31T11:15:41;17.80;99.90
13944;DHT22;7044;53.286;8.534;2023-07-31T11:18:08;17.80;99.90
13944;DHT22;7044;53.286;8.534;2023-07-31T11:20:37;17.80;99.90
13944;DHT22;7044;53.286;8.534;2023-07-31T11:23:07;17.90;99.90
13944;DHT22;7044;53.286;8.534;2023-07-31T11:25:36;17.90;99.90
13944;DHT22;7044;53.286;8.534;2023-07-31T11:28:04;17.90;99.90
13944;DHT22;7044;53.286;8.534;2023-07-31T11:30:31;17.90;99.90
13944;DHT22;7044;53.286;8.534;2023-07-31T11:32:58;18.00;99.90
13944;DHT22;7044;53.286;8.534;2023-07-31T11:35:25;17.90;99.90
13944;DHT22;7044;53.286;8.534;2023-07-31T11:37:53;18.00;99.90
13944;DHT22;7044;53.286;8.534;2023-07-31T11:40:21;18.00;99.90
13944;DHT22;7044;53.286;8.534;2023-07-31T11:42:48;18.10;99.90
13944;DHT22;7044;53.286;8.534;2023-07-31T11:45:14;18.10;99.90
13944;DHT22;7044;53.286;8.534;2023-07-31T11:47:41;18.10;99.90
13944;DHT22;7044;53.286;8.534;2023-07-31T11:50:10;18.10;99.90
13944;DHT22;7044;53.286;8.534;2023-07-31T11:52:41;18.20;99.90
13944;DHT22;7044;53.286;8.534;2023-07-31T11:55:09;18.20;99.90
13944;DHT22;7044;53.286;8.534;2023-07-31T11:57:39;18.30;99.90
13944;DHT22;7044;53.286;8.534;2023-07-31T12:00:08;18.20;99.90
13944;DHT22;7044;53.286;8.534;2023-07-31T12:02:37;18.30;99.90
13944;DHT22;7044;53.286;8.534;2023-07-31T12:05:05;18.20;99.90
13944;DHT22;7044;53.286;8.534;2023-07-31T12:07:48;18.20;99.90
13944;DHT22;7044;53.286;8.534;2023-07-31T12:10:25;18.20;99.90
13944;DHT22;7044;53.286;8.534;2023-07-31T12:13:04;18.30;99.90
13944;DHT22;7044;53.286;8.534;2023-07-31T12:15:39;18.30;99.90
13944;DHT22;7044;53.286;8.534;2023-07-31T12:18:08;18.30;99.90
13944;DHT22;7044;53.286;8.534;2023-07-31T12:20:35;18.20;99.90
13944;DHT22;7044;53.286;8.534;2023-07-31T12:23:02;18.30;99.90
13944;DHT22;7044;53.286;8.534;2023-07-31T12:25:30;17.90;99.90
13944;DHT22;7044;53.286;8.534;2023-07-31T12:27:57;18.40;99.90
13944;DHT22;7044;53.286;8.534;2023-07-31T12:30:29;18.40;99.90
13944;DHT22;7044;53.286;8.534;2023-07-31T12:32:56;18.50;99.90
13944;DHT22;7044;53.286;8.534;2023-07-31T12:35:23;18.40;99.90
13944;DHT22;7044;53.286;8.534;2023-07-31T12:37:50;15.60;99.90
13944;DHT22;7044;53.286;8.534;2023-07-31T12:40:16;18.50;99.90
13944;DHT22;7044;53.286;8.534;2023-07-31T12:42:43;18.40;99.90
13944;DHT22;7044;53.286;8.534;2023-07-31T12:45:10;18.40;99.90
13944;DHT22;7044;53.286;8.534;2023-07-31T12:47:39;18.40;99.90
13944;DHT22;7044;53.286;8.534;2023-07-31T12:50:07;18.40;99.90
13944;DHT22;7044;53.286;8.534;2023-07-31T12:52:34;18.40;99.90
13944;DHT22;7044;53.286;8.534;2023-07-31T12:55:00;18.40;99.90
13944;DHT22;7044;53.286;8.534;2023-07-31T12:57:27;18.40;99.90
13944;DHT22;7044;53.286;8.534;2023-07-31T12:59:54;18.50;99.90
13944;DHT22;7044;53.286;8.534;2023-07-31T13:02:21;18.50;99.90
13944;DHT22;7044;53.286;8.534;2023-07-31T13:04:50;18.50;99.90
13944;DHT22;7044;53.286;8.534;2023-07-31T13:07:17;18.50;99.90
13944;DHT22;7044;53.286;8.534;2023-07-31T13:09:43;18.50;99.90
13944;DHT22;7044;53.286;8.534;2023-07-31T13:12:10;18.50;99.90
13944;DHT22;7044;53.286;8.534;2023-07-31T13:14:37;18.60;99.90
13944;DHT22;7044;53.286;8.534;2023-07-31T13:17:04;18.50;99.90
13944;DHT22;7044;53.286;8.534;2023-07-31T13:19:31;18.40;99.90
13944;DHT22;7044;53.286;8.534;2023-07-31T13:21:59;18.40;99.90
13944;DHT22;7044;53.286;8.534;2023-07-31T13:24:26;18.40;99.90
13944;DHT22;7044;53.286;8.534;2023-07-31T13:26:52;18.30;99.90
13944;DHT22;7044;53.286;8.534;2023-07-31T13:29:19;18.30;99.90
13944;DHT22;7044;53.286;8.534;2023-07-31T13:31:47;18.30;99.90
13944;DHT22;7044;53.286;8.534;2023-07-31T13:34:14;18.30;99.90
13944;DHT22;7044;53.286;8.534;2023-07-31T13:39:09;18.30;99.90
13944;DHT22;7044;53.286;8.534;2023-07-31T13:41:36;18.30;99.90
13944;DHT22;7044;53.286;8.534;2023-07-31T13:44:03;18.30;99.90
13944;DHT22;7044;53.286;8.534;2023-07-31T13:46:30;18.30;99.90
13944;DHT22;7044;53.286;8.534;2023-07-31T13:48:57;18.30;99.90
13944;DHT22;7044;53.286;8.534;2023-07-31T13:51:25;18.40;99.90
13944;DHT22;7044;53.286;8.534;2023-07-31T13:53:53;18.50;99.90
13944;DHT22;7044;53.286;8.534;2023-07-31T13:56:21;18.50;99.90
13944;DHT22;7044;53.286;8.534;2023-07-31T13:58:48;18.60;99.90
13944;DHT22;7044;53.286;8.534;2023-07-31T14:01:15;18.50;99.90
13944;DHT22;7044;53.286;8.534;2023-07-31T14:03:42;18.60;99.90
13944;DHT22;7044;53.286;8.534;2023-07-31T14:06:08;18.60;99.90
13944;DHT22;7044;53.286;8.534;2023-07-31T14:08:35;18.70;99.90
13944;DHT22;7044;53.286;8.534;2023-07-31T14:11:02;18.70;99.90
13944;DHT22;7044;53.286;8.534;2023-07-31T14:13:30;18.70;99.90
13944;DHT22;7044;53.286;8.534;2023-07-31T14:15:57;18.70;99.90
13944;DHT22;7044;53.286;8.534;2023-07-31T14:18:24;18.70;99.90
13944;DHT22;7044;53.286;8.534;2023-07-31T14:20:51;18.70;99.90
13944;DHT22;7044;53.286;8.534;2023-07-31T14:23:18;18.70;99.90
13944;DHT22;7044;53.286;8.534;2023-07-31T14:25:45;18.60;99.90
13944;DHT22;7044;53.286;8.534;2023-07-31T14:28:12;18.60;99.90
13944;DHT22;7044;53.286;8.534;2023-07-31T14:30:40;18.60;99.90
13944;DHT22;7044;53.286;8.534;2023-07-31T14:33:07;18.50;99.90
13944;DHT22;7044;53.286;8.534;2023-07-31T14:35:34;18.50;99.90
13944;DHT22;7044;53.286;8.534;2023-07-31T14:38:02;18.40;99.90
13944;DHT22;7044;53.286;8.534;2023-07-31T14:40:29;18.50;99.90
13944;DHT22;7044;53.286;8.534;2023-07-31T14:42:55;18.40;99.90
13944;DHT22;7044;53.286;8.534;2023-07-31T14:45:22;18.40;99.90
13944;DHT22;7044;53.286;8.534;2023-07-31T14:47:50;18.50;99.90
13944;DHT22;7044;53.286;8.534;2023-07-31T14:50:19;18.90;99.90
13944;DHT22;7044;53.286;8.534;2023-07-31T14:52:46;18.40;99.90
13944;DHT22;7044;53.286;8.534;2023-07-31T14:55:13;18.40;99.90
13944;DHT22;7044;53.286;8.534;2023-07-31T14:57:40;18.40;99.90
13944;DHT22;7044;53.286;8.534;2023-07-31T15:00:07;18.40;99.90
13944;DHT22;7044;53.286;8.534;2023-07-31T15:02:35;18.40;99.90
13944;DHT22;7044;53.286;8.534;2023-07-31T15:05:04;18.40;99.90
13944;DHT22;7044;53.286;8.534;2023-07-31T15:07:31;18.70;99.90
13944;DHT22;7044;53.286;8.534;2023-07-31T15:09:58;18.70;99.90
13944;DHT22;7044;53.286;8.534;2023-07-31T15:12:26;18.90;99.90
13944;DHT22;7044;53.286;8.534;2023-07-31T15:14:53;18.80;99.90
13944;DHT22;7044;53.286;8.534;2023-07-31T15:17:20;18.80;99.90
13944;DHT22;7044;53.286;8.534;2023-07-31T15:19:47;18.90;99.90
13944;DHT22;7044;53.286;8.534;2023-07-31T15:22:15;18.90;99.90
13944;DHT22;7044;53.286;8.534;2023-07-31T15:24:42;18.80;99.90
13944;DHT22;7044;53.286;8.534;2023-07-31T15:27:08;18.90;99.90
13944;DHT22;7044;53.286;8.534;2023-07-31T15:29:35;18.90;99.90
13944;DHT22;7044;53.286;8.534;2023-07-31T15:32:04;18.90;99.90
13944;DHT22;7044;53.286;8.534;2023-07-31T15:34:31;18.90;99.90
13944;DHT22;7044;53.286;8.534;2023-07-31T15:36:58;19.00;99.90
13944;DHT22;7044;53.286;8.534;2023-07-31T15:39:26;19.10;99.90
13944;DHT22;7044;53.286;8.534;2023-07-31T15:41:53;19.00;99.90
13944;DHT22;7044;53.286;8.534;2023-07-31T15:44:20;19.00;99.90
13944;DHT22;7044;53.286;8.534;2023-07-31T15:46:47;19.00;99.90
13944;DHT22;7044;53.286;8.534;2023-07-31T15:49:14;19.00;99.90
13944;DHT22;7044;53.286;8.534;2023-07-31T15:51:43;19.10;99.90
13944;DHT22;7044;53.286;8.534;2023-07-31T15:54:10;19.00;99.90
13944;DHT22;7044;53.286;8.534;2023-07-31T15:56:39;19.10;99.90
13944;DHT22;7044;53.286;8.534;2023-07-31T15:59:06;19.10;99.90
13944;DHT22;7044;53.286;8.534;2023-07-31T16:01:33;19.10;99.90
13944;DHT22;7044;53.286;8.534;2023-07-31T16:03:59;19.20;99.90
13944;DHT22;7044;53.286;8.534;2023-07-31T16:06:27;19.00;99.90